sensor_id;sensor_type;location;lat;lon;timestamp;pressure;altitude;pressure_sealevel;temperature;humidity
21900;BME280;11114;50.658;12.704;2023-09-30T00:00:38;96560.28;;;15.61;62.72
21900;BME280;11114;50.658;12.704;2023-09-30T00:03:25;96563.78;;;15.61;62.62
21900;BME280;11114;50.658;12.704;2023-09-30T00:06:12;96561.94;;;15.62;62.55
21900;BME280;11114;50.658;12.704;2023-09-30T00:08:58;96564.59;;;15.68;62.36
21900;BME280;11114;50.658;12.704;2023-09-30T00:11:45;96563.78;;;15.74;62.35
21900;BME280;11114;50.658;12.704;2023-09-30T00:14:32;96566.22;;;15.82;62.42
21900;BME280;11114;50.658;12.704;2023-09-30T00:17:19;96572.94;;;15.85;62.35
21900;BME280;11114;50.658;12.704;2023-09-30T00:20:06;96577.25;;;15.92;62.20
21900;BME280;11114;50.658;12.704;2023-09-30T00:22:53;96583.78;;;15.96;62.64
21900;BME280;11114;50.658;12.704;2023-09-30T00:25:40;96595.16;;;15.77;64.18
21900;BME280;11114;50.658;12.704;2023-09-30T00:28:27;96603.38;;;15.48;65.83
21900;BME280;11114;50.658;12.704;2023-09-30T00:31:15;96609.03;;;15.33;67.12
21900;BME280;11114;50.658;12.704;2023-09-30T00:34:02;96615.28;;;15.19;67.33
21900;BME280;11114;50.658;12.704;2023-09-30T00:36:49;96620.88;;;15.03;67.78
21900;BME280;11114;50.658;12.704;2023-09-30T00:39:36;96614.75;;;14.96;68.06
21900;BME280;11114;50.658;12.704;2023-09-30T00:42:23;96620.19;;;14.88;68.36
21900;BME280;11114;50.658;12.704;2023-09-30T00:45:11;96628.66;;;14.77;68.89
21900;BME280;11114;50.658;12.704;2023-09-30T00:47:58;96622.16;;;14.73;68.40
21900;BME280;11114;50.658;12.704;2023-09-30T00:50:45;96636.38;;;14.72;68.48
21900;BME280;11114;50.658;12.704;2023-09-30T00:53:33;96636.22;;;14.59;69.01
21900;BME280;11114;50.658;12.704;2023-09-30T00:56:20;96636.00;;;14.54;69.16
21900;BME280;11114;50.658;12.704;2023-09-30T00:59:08;96639.66;;;14.53;68.97
21900;BME280;11114;50.658;12.704;2023-09-30T01:01:56;96637.63;;;14.55;69.14
21900;BME280;11114;50.658;12.704;2023-09-30T01:04:45;96644.94;;;14.53;69.00
21900;BME280;11114;50.658;12.704;2023-09-30T01:07:31;96652.16;;;14.45;69.10
21900;BME280;11114;50.658;12.704;2023-09-30T01:10:17;96653.44;;;14.28;69.40
21900;BME280;11114;50.658;12.704;2023-09-30T01:13:04;96656.28;;;14.05;69.87
21900;BME280;11114;50.658;12.704;2023-09-30T01:15:54;96657.06;;;13.99;70.22
21900;BME280;11114;50.658;12.704;2023-09-30T01:18:47;96668.44;;;14.00;69.91
21900;BME280;11114;50.658;12.704;2023-09-30T01:21:42;96667.97;;;13.96;70.54
21900;BME280;11114;50.658;12.704;2023-09-30T01:24:42;96675.56;;;13.85;70.59
21900;BME280;11114;50.658;12.704;2023-09-30T01:27:31;96681.25;;;13.82;70.77
21900;BME280;11114;50.658;12.704;2023-09-30T01:30:21;96686.53;;;13.82;72.43
21900;BME280;11114;50.658;12.704;2023-09-30T01:33:17;96691.88;;;13.74;70.79
21900;BME280;11114;50.658;12.704;2023-09-30T01:36:08;96690.69;;;13.77;71.14
21900;BME280;11114;50.658;12.704;2023-09-30T01:38:55;96700.31;;;13.84;70.75
21900;BME280;11114;50.658;12.704;2023-09-30T01:41:43;96698.25;;;13.80;70.87
21900;BME280;11114;50.658;12.704;2023-09-30T01:44:29;96700.53;;;13.68;71.28
21900;BME280;11114;50.658;12.704;2023-09-30T01:47:16;96699.06;;;13.66;71.44
21900;BME280;11114;50.658;12.704;2023-09-30T01:50:03;96707.28;;;13.56;71.77
21900;BME280;11114;50.658;12.704;2023-09-30T01:52:50;96705.25;;;13.58;71.86
21900;BME280;11114;50.658;12.704;2023-09-30T01:55:37;96713.38;;;13.57;71.85
21900;BME280;11114;50.658;12.704;2023-09-30T01:58:24;96723.03;;;13.50;72.38
21900;BME280;11114;50.658;12.704;2023-09-30T02:01:12;96722.66;;;13.53;72.15
21900;BME280;11114;50.658;12.704;2023-09-30T02:03:58;96720.09;;;13.59;72.01
21900;BME280;11114;50.658;12.704;2023-09-30T02:06:45;96723.47;;;13.53;72.17
21900;BME280;11114;50.658;12.704;2023-09-30T02:09:32;96719.66;;;13.56;72.20
21900;BME280;11114;50.658;12.704;2023-09-30T02:12:20;96728.03;;;13.45;72.19
21900;BME280;11114;50.658;12.704;2023-09-30T02:15:07;96724.38;;;13.46;72.58
21900;BME280;11114;50.658;12.704;2023-09-30T02:17:54;96726.94;;;13.39;72.60
21900;BME280;11114;50.658;12.704;2023-09-30T02:20:41;96733.94;;;13.47;72.19
21900;BME280;11114;50.658;12.704;2023-09-30T02:23:27;96732.84;;;13.56;72.19
21900;BME280;11114;50.658;12.704;2023-09-30T02:26:15;96735.22;;;13.51;72.58
21900;BME280;11114;50.658;12.704;2023-09-30T02:29:01;96740.75;;;13.56;72.42
21900;BME280;11114;50.658;12.704;2023-09-30T02:31:48;96740.66;;;13.64;72.35
21900;BME280;11114;50.658;12.704;2023-09-30T02:34:35;96748.41;;;13.65;71.99
21900;BME280;11114;50.658;12.704;2023-09-30T02:37:22;96741.41;;;13.58;71.69
21900;BME280;11114;50.658;12.704;2023-09-30T02:40:09;96746.78;;;13.50;71.88
21900;BME280;11114;50.658;12.704;2023-09-30T02:42:57;96745.50;;;13.46;71.61
21900;BME280;11114;50.658;12.704;2023-09-30T02:45:44;96743.59;;;13.40;71.46
21900;BME280;11114;50.658;12.704;2023-09-30T02:48:31;96743.94;;;13.37;71.37
21900;BME280;11114;50.658;12.704;2023-09-30T02:51:18;96745.22;;;13.41;71.52
21900;BME280;11114;50.658;12.704;2023-09-30T02:54:04;96757.97;;;13.52;71.17
21900;BME280;11114;50.658;12.704;2023-09-30T02:56:51;96757.22;;;13.58;70.68
21900;BME280;11114;50.658;12.704;2023-09-30T02:59:38;96757.47;;;13.63;70.61
21900;BME280;11114;50.658;12.704;2023-09-30T03:02:25;96758.88;;;13.59;70.42
21900;BME280;11114;50.658;12.704;2023-09-30T03:05:12;96768.13;;;13.55;70.76
21900;BME280;11114;50.658;12.704;2023-09-30T03:08:00;96778.22;;;13.51;70.68
21900;BME280;11114;50.658;12.704;2023-09-30T03:10:47;96785.44;;;13.43;71.16
21900;BME280;11114;50.658;12.704;2023-09-30T03:13:34;96786.78;;;13.39;71.31
21900;BME280;11114;50.658;12.704;2023-09-30T03:16:20;96792.31;;;13.44;71.56
21900;BME280;11114;50.658;12.704;2023-09-30T03:19:07;96801.81;;;13.38;71.21
21900;BME280;11114;50.658;12.704;2023-09-30T03:21:57;96797.53;;;13.37;71.46
21900;BME280;11114;50.658;12.704;2023-09-30T03:24:44;96803.97;;;13.35;71.56
21900;BME280;11114;50.658;12.704;2023-09-30T03:27:33;96801.81;;;13.38;71.55
21900;BME280;11114;50.658;12.704;2023-09-30T03:30:19;96806.88;;;13.40;71.67
21900;BME280;11114;50.658;12.704;2023-09-30T03:33:06;96798.41;;;13.30;71.79
21900;BME280;11114;50.658;12.704;2023-09-30T03:35:53;96812.22;;;13.17;72.00
21900;BME280;11114;50.658;12.704;2023-09-30T03:38:39;96805.72;;;13.05;71.96
21900;BME280;11114;50.658;12.704;2023-09-30T03:41:27;96818.00;;;12.98;72.10
21900;BME280;11114;50.658;12.704;2023-09-30T03:44:14;96814.63;;;12.90;71.87
21900;BME280;11114;50.658;12.704;2023-09-30T03:47:01;96819.91;;;12.90;71.91
21900;BME280;11114;50.658;12.704;2023-09-30T03:49:48;96821.22;;;12.86;71.72
21900;BME280;11114;50.658;12.704;2023-09-30T03:52:35;96821.78;;;12.82;71.86
21900;BME280;11114;50.658;12.704;2023-09-30T03:55:22;96836.41;;;12.84;72.06
21900;BME280;11114;50.658;12.704;2023-09-30T03:58:09;96845.28;;;12.83;71.96
21900;BME280;11114;50.658;12.704;2023-09-30T04:00:56;96847.63;;;12.78;71.83
21900;BME280;11114;50.658;12.704;2023-09-30T04:03:43;96858.75;;;12.66;71.75
21900;BME280;11114;50.658;12.704;2023-09-30T04:06:30;96862.25;;;12.58;71.94
21900;BME280;11114;50.658;12.704;2023-09-30T04:09:18;96852.47;;;12.44;72.23
21900;BME280;11114;50.658;12.704;2023-09-30T04:12:05;96855.25;;;12.43;72.21
21900;BME280;11114;50.658;12.704;2023-09-30T04:14:52;96860.69;;;12.41;72.06
21900;BME280;11114;50.658;12.704;2023-09-30T04:17:39;96862.34;;;12.42;72.13
21900;BME280;11114;50.658;12.704;2023-09-30T04:20:26;96858.41;;;12.38;72.08
21900;BME280;11114;50.658;12.704;2023-09-30T04:23:14;96857.84;;;12.28;72.25
21900;BME280;11114;50.658;12.704;2023-09-30T04:26:02;96857.19;;;12.26;72.52
21900;BME280;11114;50.658;12.704;2023-09-30T04:28:48;96864.19;;;12.34;72.08
21900;BME280;11114;50.658;12.704;2023-09-30T04:31:37;96860.75;;;12.33;72.00
21900;BME280;11114;50.658;12.704;2023-09-30T04:34:25;96863.63;;;12.24;71.94
21900;BME280;11114;50.658;12.704;2023-09-30T04:37:14;96860.09;;;12.31;71.64
21900;BME280;11114;50.658;12.704;2023-09-30T04:40:00;96864.38;;;12.32;71.44
21900;BME280;11114;50.658;12.704;2023-09-30T04:42:48;96863.44;;;12.25;71.37
21900;BME280;11114;50.658;12.704;2023-09-30T04:45:35;96857.84;;;12.28;71.37
21900;BME280;11114;50.658;12.704;2023-09-30T04:48:25;96866.69;;;12.35;71.16
21900;BME280;11114;50.658;12.704;2023-09-30T04:51:14;96858.47;;;12.30;71.04
21900;BME280;11114;50.658;12.704;2023-09-30T04:54:04;96868.03;;;12.23;70.94
21900;BME280;11114;50.658;12.704;2023-09-30T04:56:53;96871.84;;;12.21;71.06
21900;BME280;11114;50.658;12.704;2023-09-30T04:59:41;96869.56;;;12.18;70.92
21900;BME280;11114;50.658;12.704;2023-09-30T05:02:29;96872.53;;;12.15;71.04
21900;BME280;11114;50.658;12.704;2023-09-30T05:05:17;96872.69;;;12.13;71.08
21900;BME280;11114;50.658;12.704;2023-09-30T05:08:03;96870.06;;;12.13;70.92
21900;BME280;11114;50.658;12.704;2023-09-30T05:10:50;96863.03;;;12.06;70.98
21900;BME280;11114;50.658;12.704;2023-09-30T05:13:37;96867.13;;;12.09;71.22
21900;BME280;11114;50.658;12.704;2023-09-30T05:16:24;96872.38;;;12.16;70.83
21900;BME280;11114;50.658;12.704;2023-09-30T05:19:11;96868.75;;;12.17;70.57
21900;BME280;11114;50.658;12.704;2023-09-30T05:21:58;96878.63;;;12.15;70.41
21900;BME280;11114;50.658;12.704;2023-09-30T05:24:47;96870.72;;;12.15;70.57
21900;BME280;11114;50.658;12.704;2023-09-30T05:27:35;96876.31;;;12.20;70.29
21900;BME280;11114;50.658;12.704;2023-09-30T05:30:23;96880.56;;;12.21;70.15
21900;BME280;11114;50.658;12.704;2023-09-30T05:33:10;96873.97;;;12.25;69.99
21900;BME280;11114;50.658;12.704;2023-09-30T05:36:01;96878.25;;;12.26;70.52
21900;BME280;11114;50.658;12.704;2023-09-30T05:38:48;96879.22;;;12.25;69.95
21900;BME280;11114;50.658;12.704;2023-09-30T05:41:34;96878.25;;;12.26;70.16
21900;BME280;11114;50.658;12.704;2023-09-30T05:44:21;96880.69;;;12.28;69.97
21900;BME280;11114;50.658;12.704;2023-09-30T05:47:08;96877.88;;;12.29;70.09
21900;BME280;11114;50.658;12.704;2023-09-30T05:49:55;96877.88;;;12.29;70.01
21900;BME280;11114;50.658;12.704;2023-09-30T05:52:43;96898.34;;;12.19;70.17
21900;BME280;11114;50.658;12.704;2023-09-30T05:55:31;96908.03;;;12.19;70.30
21900;BME280;11114;50.658;12.704;2023-09-30T05:58:17;96914.97;;;12.20;70.27
21900;BME280;11114;50.658;12.704;2023-09-30T06:01:08;96910.16;;;12.23;70.20
21900;BME280;11114;50.658;12.704;2023-09-30T06:03:57;96911.81;;;12.24;70.09
21900;BME280;11114;50.658;12.704;2023-09-30T06:06:43;96921.88;;;12.21;70.35
21900;BME280;11114;50.658;12.704;2023-09-30T06:09:30;96933.25;;;12.13;70.73
21900;BME280;11114;50.658;12.704;2023-09-30T06:12:16;96937.03;;;12.11;70.97
21900;BME280;11114;50.658;12.704;2023-09-30T06:15:03;96952.84;;;12.03;71.09
21900;BME280;11114;50.658;12.704;2023-09-30T06:17:50;96955.84;;;11.84;71.78
21900;BME280;11114;50.658;12.704;2023-09-30T06:20:41;96937.63;;;11.83;72.14
21900;BME280;11114;50.658;12.704;2023-09-30T06:23:27;96933.66;;;11.87;72.16
21900;BME280;11114;50.658;12.704;2023-09-30T06:26:16;96936.09;;;11.96;72.27
21900;BME280;11114;50.658;12.704;2023-09-30T06:29:02;96945.13;;;12.02;72.41
21900;BME280;11114;50.658;12.704;2023-09-30T06:31:53;96950.91;;;11.97;72.55
21900;BME280;11114;50.658;12.704;2023-09-30T06:34:39;96944.16;;;12.03;72.46
21900;BME280;11114;50.658;12.704;2023-09-30T06:37:26;96942.34;;;11.95;72.52
21900;BME280;11114;50.658;12.704;2023-09-30T06:40:15;96952.72;;;11.89;72.79
21900;BME280;11114;50.658;12.704;2023-09-30T06:43:06;96953.19;;;11.92;73.21
21900;BME280;11114;50.658;12.704;2023-09-30T06:45:53;96951.88;;;12.04;72.89
21900;BME280;11114;50.658;12.704;2023-09-30T06:48:40;96954.94;;;12.15;72.77
21900;BME280;11114;50.658;12.704;2023-09-30T06:51:31;96954.78;;;12.17;72.62
21900;BME280;11114;50.658;12.704;2023-09-30T06:54:17;96954.25;;;12.21;72.55
21900;BME280;11114;50.658;12.704;2023-09-30T06:57:04;96949.31;;;12.26;72.37
21900;BME280;11114;50.658;12.704;2023-09-30T06:59:50;96957.53;;;12.31;72.29
21900;BME280;11114;50.658;12.704;2023-09-30T07:02:39;96969.03;;;12.30;72.23
21900;BME280;11114;50.658;12.704;2023-09-30T07:05:27;96973.72;;;12.20;72.18
21900;BME280;11114;50.658;12.704;2023-09-30T07:08:19;96976.19;;;12.14;71.94
21900;BME280;11114;50.658;12.704;2023-09-30T07:11:09;96979.16;;;12.11;72.48
21900;BME280;11114;50.658;12.704;2023-09-30T07:13:58;96986.88;;;12.13;72.60
21900;BME280;11114;50.658;12.704;2023-09-30T07:16:45;96989.53;;;12.05;72.81
21900;BME280;11114;50.658;12.704;2023-09-30T07:19:33;96988.50;;;12.13;72.83
21900;BME280;11114;50.658;12.704;2023-09-30T07:22:21;96989.84;;;12.17;72.44
21900;BME280;11114;50.658;12.704;2023-09-30T07:25:27;96990.00;;;12.16;71.94
21900;BME280;11114;50.658;12.704;2023-09-30T07:28:15;96996.09;;;12.09;72.03
21900;BME280;11114;50.658;12.704;2023-09-30T07:31:02;96989.19;;;12.08;72.05
21900;BME280;11114;50.658;12.704;2023-09-30T07:33:48;96982.75;;;12.18;71.87
21900;BME280;11114;50.658;12.704;2023-09-30T07:36:35;96983.19;;;12.29;71.93
21900;BME280;11114;50.658;12.704;2023-09-30T07:39:22;96985.50;;;12.32;71.87
21900;BME280;11114;50.658;12.704;2023-09-30T07:42:09;96993.38;;;12.32;71.66
21900;BME280;11114;50.658;12.704;2023-09-30T07:44:56;96986.34;;;12.33;71.66
21900;BME280;11114;50.658;12.704;2023-09-30T07:47:44;96998.47;;;12.42;71.65
21900;BME280;11114;50.658;12.704;2023-09-30T07:50:32;96998.25;;;12.51;71.56
21900;BME280;11114;50.658;12.704;2023-09-30T07:53:20;96999.91;;;12.52;71.39
21900;BME280;11114;50.658;12.704;2023-09-30T07:56:07;96993.81;;;12.52;71.53
21900;BME280;11114;50.658;12.704;2023-09-30T07:58:54;96986.03;;;12.58;71.46
21900;BME280;11114;50.658;12.704;2023-09-30T08:01:41;96994.59;;;12.60;71.41
21900;BME280;11114;50.658;12.704;2023-09-30T08:04:28;97006.72;;;12.39;71.22
21900;BME280;11114;50.658;12.704;2023-09-30T08:07:16;97001.00;;;12.27;71.82
21900;BME280;11114;50.658;12.704;2023-09-30T08:10:03;97000.16;;;12.27;72.13
21900;BME280;11114;50.658;12.704;2023-09-30T08:12:58;96992.69;;;12.38;71.84
21900;BME280;11114;50.658;12.704;2023-09-30T08:15:50;96991.06;;;12.45;71.44
21900;BME280;11114;50.658;12.704;2023-09-30T08:18:37;96992.53;;;12.48;71.67
21900;BME280;11114;50.658;12.704;2023-09-30T08:21:24;97002.38;;;12.54;71.19
21900;BME280;11114;50.658;12.704;2023-09-30T08:24:10;96995.91;;;12.64;70.73
21900;BME280;11114;50.658;12.704;2023-09-30T08:26:58;96999.66;;;12.70;70.56
21900;BME280;11114;50.658;12.704;2023-09-30T08:29:45;97005.09;;;12.68;70.38
21900;BME280;11114;50.658;12.704;2023-09-30T08:32:34;97018.09;;;12.70;70.61
21900;BME280;11114;50.658;12.704;2023-09-30T08:35:21;97014.31;;;12.80;70.45
21900;BME280;11114;50.658;12.704;2023-09-30T08:38:10;97017.41;;;12.84;70.60
21900;BME280;11114;50.658;12.704;2023-09-30T08:40:57;97023.81;;;12.89;70.46
21900;BME280;11114;50.658;12.704;2023-09-30T08:43:44;97019.00;;;12.93;70.41
21900;BME280;11114;50.658;12.704;2023-09-30T08:46:33;97021.28;;;12.96;70.36
21900;BME280;11114;50.658;12.704;2023-09-30T08:49:21;97016.34;;;13.00;70.55
21900;BME280;11114;50.658;12.704;2023-09-30T08:52:10;97038.84;;;13.11;70.12
21900;BME280;11114;50.658;12.704;2023-09-30T08:54:57;97042.38;;;13.26;69.90
21900;BME280;11114;50.658;12.704;2023-09-30T08:57:45;97048.34;;;13.42;69.29
21900;BME280;11114;50.658;12.704;2023-09-30T09:00:32;97043.53;;;13.46;68.95
21900;BME280;11114;50.658;12.704;2023-09-30T09:03:20;97048.81;;;13.46;68.07
21900;BME280;11114;50.658;12.704;2023-09-30T09:06:06;97056.06;;;13.52;68.11
21900;BME280;11114;50.658;12.704;2023-09-30T09:09:12;97048.47;;;13.49;67.15
21900;BME280;11114;50.658;12.704;2023-09-30T09:12:00;97040.25;;;13.44;67.38
21900;BME280;11114;50.658;12.704;2023-09-30T09:14:46;97044.84;;;13.50;67.76
21900;BME280;11114;50.658;12.704;2023-09-30T09:17:43;97042.03;;;13.51;67.69
21900;BME280;11114;50.658;12.704;2023-09-30T09:20:30;97052.19;;;13.62;67.52
21900;BME280;11114;50.658;12.704;2023-09-30T09:23:17;97045.19;;;13.69;67.35
21900;BME280;11114;50.658;12.704;2023-09-30T09:26:03;97058.19;;;13.71;67.17
21900;BME280;11114;50.658;12.704;2023-09-30T09:29:00;97048.56;;;13.85;67.20
21900;BME280;11114;50.658;12.704;2023-09-30T09:31:47;97046.94;;;13.99;66.54
21900;BME280;11114;50.658;12.704;2023-09-30T09:34:35;97060.09;;;14.07;65.77
21900;BME280;11114;50.658;12.704;2023-09-30T09:37:21;97051.50;;;14.05;64.99
21900;BME280;11114;50.658;12.704;2023-09-30T09:40:09;97047.53;;;14.09;65.00
21900;BME280;11114;50.658;12.704;2023-09-30T09:43:00;97048.00;;;14.12;64.44
21900;BME280;11114;50.658;12.704;2023-09-30T09:45:51;97054.81;;;14.21;63.93
21900;BME280;11114;50.658;12.704;2023-09-30T09:48:39;97045.00;;;14.30;63.88
21900;BME280;11114;50.658;12.704;2023-09-30T09:51:32;97048.72;;;14.35;63.18
21900;BME280;11114;50.658;12.704;2023-09-30T09:54:29;97050.16;;;14.23;62.37
21900;BME280;11114;50.658;12.704;2023-09-30T09:57:19;97038.81;;;14.37;62.43
21900;BME280;11114;50.658;12.704;2023-09-30T10:00:06;97037.63;;;14.54;62.54
21900;BME280;11114;50.658;12.704;2023-09-30T10:03:02;97040.53;;;14.59;60.96
21900;BME280;11114;50.658;12.704;2023-09-30T10:05:50;97041.84;;;14.77;60.73
21900;BME280;11114;50.658;12.704;2023-09-30T10:08:39;97039.53;;;14.89;61.02
21900;BME280;11114;50.658;12.704;2023-09-30T10:11:27;97042.84;;;14.91;60.26
21900;BME280;11114;50.658;12.704;2023-09-30T10:14:33;97049.75;;;14.92;60.83
21900;BME280;11114;50.658;12.704;2023-09-30T10:17:20;97044.38;;;15.00;59.55
21900;BME280;11114;50.658;12.704;2023-09-30T10:20:07;97035.47;;;15.07;59.25
21900;BME280;11114;50.658;12.704;2023-09-30T10:23:27;97047.31;;;15.26;58.06
21900;BME280;11114;50.658;12.704;2023-09-30T10:26:18;97042.94;;;15.53;58.63
21900;BME280;11114;50.658;12.704;2023-09-30T10:29:11;97053.66;;;15.66;57.73
21900;BME280;11114;50.658;12.704;2023-09-30T10:31:58;97050.63;;;15.90;57.46
21900;BME280;11114;50.658;12.704;2023-09-30T10:34:57;97043.38;;;16.26;56.93
21900;BME280;11114;50.658;12.704;2023-09-30T10:47:36;97043.44;;;17.53;49.76
21900;BME280;11114;50.658;12.704;2023-09-30T10:50:59;97040.22;;;17.84;49.53
21900;BME280;11114;50.658;12.704;2023-09-30T10:53:55;97033.09;;;18.10;50.64
21900;BME280;11114;50.658;12.704;2023-09-30T10:56:48;97031.25;;;18.30;49.28
21900;BME280;11114;50.658;12.704;2023-09-30T10:59:37;97035.56;;;18.11;48.76
21900;BME280;11114;50.658;12.704;2023-09-30T11:02:23;97040.44;;;18.14;48.05
21900;BME280;11114;50.658;12.704;2023-09-30T11:05:10;97030.00;;;18.52;48.24
21900;BME280;11114;50.658;12.704;2023-09-30T11:07:57;97034.88;;;18.68;45.63
21900;BME280;11114;50.658;12.704;2023-09-30T11:14:34;97028.03;;;18.97;46.53
21900;BME280;11114;50.658;12.704;2023-09-30T11:17:22;97029.75;;;19.29;46.94
21900;BME280;11114;50.658;12.704;2023-09-30T11:20:09;97029.25;;;19.45;45.84
21900;BME280;11114;50.658;12.704;2023-09-30T11:22:56;97021.72;;;19.79;45.66
21900;BME280;11114;50.658;12.704;2023-09-30T11:25:43;97026.22;;;19.79;44.40
21900;BME280;11114;50.658;12.704;2023-09-30T11:31:28;97029.06;;;20.08;44.15
21900;BME280;11114;50.658;12.704;2023-09-30T11:34:19;97024.03;;;20.25;43.96
21900;BME280;11114;50.658;12.704;2023-09-30T11:37:06;97016.50;;;20.40;43.45
21900;BME280;11114;50.658;12.704;2023-09-30T11:39:52;97018.16;;;20.58;43.13
21900;BME280;11114;50.658;12.704;2023-09-30T11:42:40;97017.28;;;20.82;41.95
21900;BME280;11114;50.658;12.704;2023-09-30T11:45:28;97011.75;;;21.02;40.99
21900;BME280;11114;50.658;12.704;2023-09-30T11:48:18;97009.28;;;20.82;40.59
21900;BME280;11114;50.658;12.704;2023-09-30T11:51:07;96999.44;;;21.01;40.53
21900;BME280;11114;50.658;12.704;2023-09-30T11:53:55;96994.00;;;21.07;40.88
21900;BME280;11114;50.658;12.704;2023-09-30T11:56:42;96999.41;;;21.37;40.17
21900;BME280;11114;50.658;12.704;2023-09-30T11:59:28;97007.88;;;21.45;40.73
21900;BME280;11114;50.658;12.704;2023-09-30T12:02:15;97006.09;;;21.57;39.40
21900;BME280;11114;50.658;12.704;2023-09-30T12:05:04;96999.19;;;21.49;40.30
21900;BME280;11114;50.658;12.704;2023-09-30T12:07:57;97002.06;;;21.66;39.55
21900;BME280;11114;50.658;12.704;2023-09-30T12:10:44;96999.00;;;21.80;39.83
21900;BME280;11114;50.658;12.704;2023-09-30T12:13:31;97007.34;;;21.72;39.27
21900;BME280;11114;50.658;12.704;2023-09-30T12:16:17;97005.03;;;21.58;40.22
21900;BME280;11114;50.658;12.704;2023-09-30T12:19:04;96995.38;;;21.45;40.39
21900;BME280;11114;50.658;12.704;2023-09-30T12:21:54;96974.44;;;21.72;39.46
21900;BME280;11114;50.658;12.704;2023-09-30T12:24:41;96983.50;;;21.71;37.69
21900;BME280;11114;50.658;12.704;2023-09-30T12:27:27;96975.81;;;21.63;39.29
21900;BME280;11114;50.658;12.704;2023-09-30T12:30:14;96980.75;;;21.89;38.88
21900;BME280;11114;50.658;12.704;2023-09-30T12:33:01;96970.75;;;21.96;38.52
21900;BME280;11114;50.658;12.704;2023-09-30T12:35:47;96969.78;;;21.79;38.25
21900;BME280;11114;50.658;12.704;2023-09-30T12:38:34;96966.84;;;21.69;38.51
21900;BME280;11114;50.658;12.704;2023-09-30T12:41:21;96969.00;;;21.49;37.92
21900;BME280;11114;50.658;12.704;2023-09-30T12:44:09;96958.53;;;21.47;38.66
21900;BME280;11114;50.658;12.704;2023-09-30T12:46:55;96967.19;;;21.61;38.04
21900;BME280;11114;50.658;12.704;2023-09-30T12:49:45;96969.56;;;21.51;38.35
21900;BME280;11114;50.658;12.704;2023-09-30T12:52:32;96972.78;;;21.71;39.09
21900;BME280;11114;50.658;12.704;2023-09-30T12:55:18;96969.84;;;21.90;38.29
21900;BME280;11114;50.658;12.704;2023-09-30T12:58:05;96964.34;;;21.74;37.63
21900;BME280;11114;50.658;12.704;2023-09-30T13:00:52;96960.63;;;21.75;38.89
21900;BME280;11114;50.658;12.704;2023-09-30T13:03:58;96960.38;;;21.76;36.75
21900;BME280;11114;50.658;12.704;2023-09-30T13:06:45;96960.13;;;21.66;37.66
21900;BME280;11114;50.658;12.704;2023-09-30T13:09:32;96956.13;;;21.98;37.91
21900;BME280;11114;50.658;12.704;2023-09-30T13:12:19;96953.22;;;22.11;37.39
21900;BME280;11114;50.658;12.704;2023-09-30T13:15:06;96956.72;;;22.46;35.88
21900;BME280;11114;50.658;12.704;2023-09-30T13:17:52;96951.94;;;22.59;35.30
21900;BME280;11114;50.658;12.704;2023-09-30T13:20:40;96950.84;;;22.83;34.37
21900;BME280;11114;50.658;12.704;2023-09-30T13:23:27;96948.66;;;22.80;34.63
21900;BME280;11114;50.658;12.704;2023-09-30T13:26:13;96949.13;;;23.16;34.25
21900;BME280;11114;50.658;12.704;2023-09-30T13:28:59;96941.00;;;23.84;34.14
21900;BME280;11114;50.658;12.704;2023-09-30T13:31:47;96932.25;;;24.21;33.62
21900;BME280;11114;50.658;12.704;2023-09-30T13:34:34;96940.22;;;24.16;33.40
21900;BME280;11114;50.658;12.704;2023-09-30T13:37:21;96927.66;;;23.56;33.16
21900;BME280;11114;50.658;12.704;2023-09-30T13:40:09;96942.44;;;22.29;35.73
21900;BME280;11114;50.658;12.704;2023-09-30T13:42:59;96944.47;;;21.52;36.50
21900;BME280;11114;50.658;12.704;2023-09-30T13:45:46;96951.56;;;21.17;37.67
21900;BME280;11114;50.658;12.704;2023-09-30T13:48:38;96949.28;;;21.03;38.52
21900;BME280;11114;50.658;12.704;2023-09-30T13:51:25;96948.34;;;20.79;38.51
21900;BME280;11114;50.658;12.704;2023-09-30T13:54:12;96945.81;;;20.31;38.21
21900;BME280;11114;50.658;12.704;2023-09-30T13:57:03;96942.22;;;20.19;38.61
21900;BME280;11114;50.658;12.704;2023-09-30T13:59:51;96935.75;;;20.08;38.94
21900;BME280;11114;50.658;12.704;2023-09-30T14:02:39;96930.69;;;20.00;38.86
21900;BME280;11114;50.658;12.704;2023-09-30T14:05:34;96926.47;;;19.69;39.14
21900;BME280;11114;50.658;12.704;2023-09-30T14:08:21;96927.09;;;19.33;39.70
21900;BME280;11114;50.658;12.704;2023-09-30T14:11:07;96932.00;;;19.05;40.09
21900;BME280;11114;50.658;12.704;2023-09-30T14:13:54;96933.25;;;19.03;40.26
21900;BME280;11114;50.658;12.704;2023-09-30T14:16:41;96941.44;;;19.01;40.67
21900;BME280;11114;50.658;12.704;2023-09-30T14:19:29;96949.59;;;19.06;40.74
21900;BME280;11114;50.658;12.704;2023-09-30T14:22:16;96947.53;;;19.08;40.63
21900;BME280;11114;50.658;12.704;2023-09-30T14:25:04;96939.03;;;18.93;40.68
21900;BME280;11114;50.658;12.704;2023-09-30T14:27:51;96940.31;;;18.85;41.31
21900;BME280;11114;50.658;12.704;2023-09-30T14:30:37;96934.59;;;18.75;40.91
21900;BME280;11114;50.658;12.704;2023-09-30T14:33:25;96940.56;;;18.64;41.61
21900;BME280;11114;50.658;12.704;2023-09-30T14:36:11;96926.88;;;18.54;41.22
21900;BME280;11114;50.658;12.704;2023-09-30T14:38:59;96933.91;;;18.29;41.39
21900;BME280;11114;50.658;12.704;2023-09-30T14:42:00;96936.00;;;18.14;41.77
21900;BME280;11114;50.658;12.704;2023-09-30T14:44:48;96940.69;;;18.18;41.83
21900;BME280;11114;50.658;12.704;2023-09-30T14:47:35;96940.91;;;18.17;41.72
21900;BME280;11114;50.658;12.704;2023-09-30T14:50:21;96939.25;;;17.97;40.94
21900;BME280;11114;50.658;12.704;2023-09-30T14:53:08;96940.09;;;17.78;41.75
21900;BME280;11114;50.658;12.704;2023-09-30T14:55:54;96941.94;;;17.71;42.31